Time;durP1;ratioP1;P1;durP2;ratioP2;P2;SDS_P1;SDS_P2;PMS_P1;PMS_P2;Temp;Humidity;BMP_temperature;BMP_pressure;BME280_temperature;BME280_humidity;BME280_pressure;Samples;Min_cycle;Max_cycle;Signal;HPM_P1;HPM_P2
2023/03/09 00:00:27;;;;;;;48.85;41.38;;;;;;;;;;5053172;28;20032;-62
2023/03/09 00:02:53;;;;;;;46.13;41.10;;;;;;;;;;5035100;28;20495;-62
2023/03/09 00:05:20;;;;;;;46.65;41.53;;;;;;;;;;5052712;28;20050;-62
2023/03/09 00:07:46;;;;;;;49.70;41.67;;;;;;;;;;5075175;22;20018;-56
2023/03/09 00:10:13;;;;;;;50.03;40.85;;;;;;;;;;5113764;28;20028;-58
2023/03/09 00:12:39;;;;;;;46.45;41.40;;;;;;;;;;5114489;28;20024;-57
2023/03/09 00:15:05;;;;;;;48.50;42.65;;;;;;;;;;5114995;28;20031;-57
2023/03/09 00:17:31;;;;;;;46.03;40.63;;;;;;;;;;5114797;28;20398;-57
2023/03/09 00:20:16;;;;;;;46.70;40.92;;;;;;;;;;5115330;28;20020;-57
2023/03/09 00:22:42;;;;;;;46.20;40.65;;;;;;;;;;5097446;28;20107;-59
2023/03/09 00:25:13;;;;;;;44.95;39.92;;;;;;;;;;5115445;28;20479;-57
2023/03/09 00:27:39;;;;;;;45.90;41.05;;;;;;;;;;5115400;28;20043;-59
2023/03/09 00:30:05;;;;;;;47.88;40.58;;;;;;;;;;5115478;28;20030;-53
2023/03/09 00:32:31;;;;;;;45.60;40.70;;;;;;;;;;5097117;28;20092;-59
2023/03/09 00:34:57;;;;;;;45.28;40.30;;;;;;;;;;5096894;28;20081;-57
2023/03/09 00:37:23;;;;;;;46.88;40.80;;;;;;;;;;5115239;28;20019;-58
2023/03/09 00:39:49;;;;;;;44.67;39.85;;;;;;;;;;5097091;28;20050;-58
2023/03/09 00:42:15;;;;;;;46.03;41.00;;;;;;;;;;5115390;28;20038;-56
2023/03/09 00:44:41;;;;;;;48.53;42.88;;;;;;;;;;5114900;28;20364;-58
2023/03/09 00:47:07;;;;;;;49.78;41.17;;;;;;;;;;5115221;28;20030;-58
2023/03/09 00:49:34;;;;;;;46.65;41.47;;;;;;;;;;5114913;28;20028;-57
2023/03/09 00:52:00;;;;;;;47.33;40.85;;;;;;;;;;5096646;28;20031;-58
2023/03/09 00:54:26;;;;;;;47.40;42.30;;;;;;;;;;5113836;28;20023;-57
2023/03/09 00:56:52;;;;;;;45.80;41.15;;;;;;;;;;5114877;28;20547;-59
2023/03/09 00:59:18;;;;;;;46.38;41.13;;;;;;;;;;5114940;28;20022;-58
2023/03/09 01:01:44;;;;;;;48.75;42.83;;;;;;;;;;5114872;28;20497;-58
2023/03/09 01:04:10;;;;;;;45.72;40.83;;;;;;;;;;5114530;28;20015;-59
2023/03/09 01:06:36;;;;;;;46.35;41.35;;;;;;;;;;5096517;28;20496;-57
2023/03/09 01:09:02;;;;;;;47.45;42.20;;;;;;;;;;5096377;28;20032;-57
2023/03/09 01:11:28;;;;;;;46.05;41.13;;;;;;;;;;5114828;28;20026;-55
2023/03/09 01:13:54;;;;;;;46.50;41.55;;;;;;;;;;5114400;28;20019;-58
2023/03/09 01:16:20;;;;;;;47.25;40.35;;;;;;;;;;5114433;28;20034;-56
2023/03/09 01:18:46;;;;;;;45.72;40.50;;;;;;;;;;5114702;28;20019;-55
2023/03/09 01:21:12;;;;;;;47.47;40.08;;;;;;;;;;5096446;28;20019;-58
2023/03/09 01:23:39;;;;;;;47.58;42.47;;;;;;;;;;5114295;28;20024;-60
2023/03/09 01:26:07;;;;;;;46.38;41.58;;;;;;;;;;5114404;28;20019;-60
2023/03/09 01:28:34;;;;;;;46.75;41.72;;;;;;;;;;5114248;28;20495;-59
2023/03/09 01:31:00;;;;;;;47.13;41.08;;;;;;;;;;5114309;28;20063;-59
2023/03/09 01:33:26;;;;;;;46.25;40.90;;;;;;;;;;5095950;28;20024;-59
2023/03/09 01:35:52;;;;;;;48.63;41.83;;;;;;;;;;5114132;28;20050;-59
2023/03/09 01:38:18;;;;;;;48.35;43.08;;;;;;;;;;5113843;28;20080;-58
2023/03/09 01:40:45;;;;;;;50.13;43.95;;;;;;;;;;5114052;28;20036;-55
2023/03/09 01:43:27;;;;;;;47.20;41.90;;;;;;;;;;5096928;28;20015;-56
2023/03/09 01:46:31;;;;;;;49.08;43.25;;;;;;;;;;5113686;28;20024;-53
2023/03/09 01:49:00;;;;;;;54.70;43.65;;;;;;;;;;5050758;28;20108;-57
2023/03/09 01:51:26;;;;;;;;;;;;;;;;;;5051697;28;20409;-59
2023/03/09 01:53:52;;;;;;;47.65;42.20;;;;;;;;;;5071345;28;19904;-54
2023/03/09 01:56:20;;;;;;;49.80;40.28;;;;;;;;;;5075415;28;20497;-56
2023/03/09 01:58:48;;;;;;;47.58;41.33;;;;;;;;;;5093307;28;20024;-58
2023/03/09 02:01:14;;;;;;;48.40;43.28;;;;;;;;;;5093381;28;20495;-58
2023/03/09 02:03:43;;;;;;;48.75;41.85;;;;;;;;;;5093045;28;20055;-58
2023/03/09 02:06:11;;;;;;;48.03;41.47;;;;;;;;;;5093121;28;20027;-58
2023/03/09 02:08:39;;;;;;;45.72;40.55;;;;;;;;;;5092979;28;20116;-58
2023/03/09 02:11:10;;;;;;;49.55;40.72;;;;;;;;;;5093072;28;20499;-55
2023/03/09 02:13:37;;;;;;;46.75;41.70;;;;;;;;;;5092741;28;20016;-55
2023/03/09 02:16:03;;;;;;;49.40;42.15;;;;;;;;;;5092981;28;20024;-54
2023/03/09 02:18:29;;;;;;;57.17;44.42;;;;;;;;;;5102897;28;20035;-59
2023/03/09 02:20:58;;;;;;;47.38;41.95;;;;;;;;;;5104804;28;20502;-59
2023/03/09 02:23:29;;;;;;;51.95;43.13;;;;;;;;;;5112880;28;20028;-58
2023/03/09 02:26:06;;;;;;;50.15;42.38;;;;;;;;;;5104591;28;20564;-59
2023/03/09 02:28:33;;;;;;;49.03;42.40;;;;;;;;;;5107489;28;20028;-59
2023/03/09 02:30:59;;;;;;;48.20;42.75;;;;;;;;;;5112881;28;20012;-59
2023/03/09 02:33:26;;;;;;;51.35;44.47;;;;;;;;;;5112568;28;20020;-59
2023/03/09 02:35:53;;;;;;;52.58;45.05;;;;;;;;;;5112900;28;20426;-58
2023/03/09 02:38:19;;;;;;;45.88;40.88;;;;;;;;;;5112952;28;20079;-58
2023/03/09 02:40:46;;;;;;;54.25;43.97;;;;;;;;;;5094603;28;20031;-58
2023/03/09 02:43:12;;;;;;;49.60;42.97;;;;;;;;;;5112534;28;20035;-57
2023/03/09 02:45:39;;;;;;;55.65;45.00;;;;;;;;;;5094531;28;20027;-57
2023/03/09 02:48:05;;;;;;;53.33;44.25;;;;;;;;;;5112701;28;20084;-58
2023/03/09 02:50:31;;;;;;;49.85;44.25;;;;;;;;;;5094829;28;20024;-55
2023/03/09 02:52:57;;;;;;;51.60;45.97;;;;;;;;;;5094623;28;20033;-57
2023/03/09 02:55:23;;;;;;;51.92;44.50;;;;;;;;;;5113174;28;20048;-56
2023/03/09 02:57:49;;;;;;;53.47;43.53;;;;;;;;;;5094633;28;20035;-55
2023/03/09 03:00:16;;;;;;;52.78;45.22;;;;;;;;;;5112879;28;20023;-57
2023/03/09 03:02:42;;;;;;;54.20;45.28;;;;;;;;;;5112651;28;20024;-58
2023/03/09 03:05:09;;;;;;;52.03;43.38;;;;;;;;;;5112289;28;20034;-58
2023/03/09 03:07:35;;;;;;;48.78;43.47;;;;;;;;;;5112346;28;20601;-55
2023/03/09 03:10:01;;;;;;;55.22;44.38;;;;;;;;;;5112570;28;20126;-58
2023/03/09 03:12:27;;;;;;;49.42;43.83;;;;;;;;;;5094439;28;20030;-56
2023/03/09 03:14:53;;;;;;;52.03;43.40;;;;;;;;;;5093888;28;20094;-58
2023/03/09 03:17:19;;;;;;;52.90;44.33;;;;;;;;;;5111579;28;20030;-58
2023/03/09 03:19:45;;;;;;;54.08;44.85;;;;;;;;;;5112257;28;20046;-57
2023/03/09 03:22:11;;;;;;;50.65;44.55;;;;;;;;;;5112315;28;20361;-58
2023/03/09 03:24:37;;;;;;;48.92;42.85;;;;;;;;;;5112053;28;20031;-58
2023/03/09 03:27:03;;;;;;;51.20;43.17;;;;;;;;;;5112490;28;20411;-58
2023/03/09 03:29:29;;;;;;;51.88;45.67;;;;;;;;;;5112279;28;20031;-57
2023/03/09 03:31:55;;;;;;;53.10;43.92;;;;;;;;;;5094016;28;20024;-58
2023/03/09 03:34:21;;;;;;;47.70;42.50;;;;;;;;;;5112003;28;20464;-56
2023/03/09 03:36:47;;;;;;;52.05;44.40;;;;;;;;;;5093893;28;20035;-57
2023/03/09 03:39:13;;;;;;;49.20;43.92;;;;;;;;;;5112330;28;20030;-58
2023/03/09 03:41:39;;;;;;;51.85;43.90;;;;;;;;;;5093592;28;20016;-54
2023/03/09 03:44:05;;;;;;;47.65;42.53;;;;;;;;;;5111987;28;20106;-58
2023/03/09 03:46:31;;;;;;;50.30;43.47;;;;;;;;;;5111914;28;20036;-56
2023/03/09 03:48:57;;;;;;;49.40;43.58;;;;;;;;;;5093404;28;20449;-58
2023/03/09 03:51:23;;;;;;;48.25;43.05;;;;;;;;;;5111880;28;20045;-58
2023/03/09 03:53:49;;;;;;;50.72;44.53;;;;;;;;;;5111598;28;20023;-58
2023/03/09 03:56:16;;;;;;;48.10;42.63;;;;;;;;;;5111898;28;20059;-57
2023/03/09 03:58:42;;;;;;;47.95;42.75;;;;;;;;;;5112025;28;20026;-57
2023/03/09 04:01:08;;;;;;;48.03;42.88;;;;;;;;;;5111752;28;20035;-58
2023/03/09 04:03:34;;;;;;;52.55;43.88;;;;;;;;;;5111719;28;20062;-56
2023/03/09 04:06:02;;;;;;;48.85;42.63;;;;;;;;;;5112022;28;20083;-59
2023/03/09 04:08:28;;;;;;;50.08;43.63;;;;;;;;;;5093702;28;20498;-57
2023/03/09 04:10:54;;;;;;;47.33;42.03;;;;;;;;;;5094128;28;20150;-57
2023/03/09 04:13:20;;;;;;;51.63;41.25;;;;;;;;;;5111703;28;20023;-56
2023/03/09 04:15:48;;;;;;;46.80;41.70;;;;;;;;;;5111828;28;20035;-56
2023/03/09 04:18:14;;;;;;;47.05;41.88;;;;;;;;;;5093451;28;20031;-58
2023/03/09 04:20:41;;;;;;;46.47;41.42;;;;;;;;;;5111676;28;20032;-56
2023/03/09 04:23:07;;;;;;;44.25;39.60;;;;;;;;;;5111330;28;20031;-55
2023/03/09 04:25:33;;;;;;;46.83;41.90;;;;;;;;;;5093191;28;20026;-58
2023/03/09 04:27:59;;;;;;;48.38;43.10;;;;;;;;;;5111270;28;20050;-59
2023/03/09 04:30:25;;;;;;;46.90;40.78;;;;;;;;;;5113029;28;20051;-58
2023/03/09 04:32:51;;;;;;;47.55;41.60;;;;;;;;;;5115092;28;20020;-55
2023/03/09 04:35:17;;;;;;;47.78;42.30;;;;;;;;;;5096818;28;20047;-58
2023/03/09 04:37:43;;;;;;;47.83;41.97;;;;;;;;;;5115307;28;20440;-58
2023/03/09 04:40:10;;;;;;;47.20;40.95;;;;;;;;;;5115123;28;20023;-60
2023/03/09 04:42:36;;;;;;;46.95;41.78;;;;;;;;;;5115060;28;20102;-58
2023/03/09 04:45:03;;;;;;;44.97;39.88;;;;;;;;;;5114621;28;20550;-58
2023/03/09 04:47:29;;;;;;;47.67;42.47;;;;;;;;;;5096583;28;20027;-57
2023/03/09 04:49:55;;;;;;;47.53;42.38;;;;;;;;;;5114916;28;20026;-58
2023/03/09 04:52:21;;;;;;;48.85;41.53;;;;;;;;;;5114934;28;20047;-58
2023/03/09 04:54:47;;;;;;;47.88;42.33;;;;;;;;;;5096279;28;20027;-58
2023/03/09 04:57:14;;;;;;;48.38;42.70;;;;;;;;;;5114754;28;20024;-58
2023/03/09 04:59:40;;;;;;;48.75;43.53;;;;;;;;;;5114601;28;20023;-58
2023/03/09 05:02:06;;;;;;;45.78;41.08;;;;;;;;;;5096408;28;20316;-61
2023/03/09 05:04:32;;;;;;;46.25;41.33;;;;;;;;;;5114519;28;20515;-60
2023/03/09 05:06:58;;;;;;;47.55;42.45;;;;;;;;;;5114552;28;20073;-58
2023/03/09 05:09:25;;;;;;;49.72;43.03;;;;;;;;;;5096182;28;20028;-56
2023/03/09 05:11:51;;;;;;;47.85;42.22;;;;;;;;;;5114517;28;20031;-58
2023/03/09 05:14:18;;;;;;;55.83;44.42;;;;;;;;;;5114167;28;20023;-58
2023/03/09 05:16:44;;;;;;;48.00;42.03;;;;;;;;;;5095964;28;20027;-56
2023/03/09 05:19:11;;;;;;;47.95;42.85;;;;;;;;;;5095765;28;20062;-57
2023/03/09 05:21:37;;;;;;;48.38;42.97;;;;;;;;;;5114306;28;20031;-58
2023/03/09 05:24:03;;;;;;;49.30;43.28;;;;;;;;;;5095768;28;20077;-59
2023/03/09 05:26:29;;;;;;;46.63;40.63;;;;;;;;;;5095805;28;20111;-58
2023/03/09 05:28:55;;;;;;;46.88;41.75;;;;;;;;;;5095463;28;20034;-58
2023/03/09 05:31:22;;;;;;;52.83;42.55;;;;;;;;;;5114244;28;20019;-51
2023/03/09 05:33:48;;;;;;;47.85;42.67;;;;;;;;;;5095648;28;20030;-52
2023/03/09 05:36:18;;;;;;;48.47;43.20;;;;;;;;;;5095614;28;20535;-56
2023/03/09 05:38:44;;;;;;;49.10;43.70;;;;;;;;;;5113925;28;20024;-52
2023/03/09 05:41:10;;;;;;;48.08;42.65;;;;;;;;;;5113472;28;20050;-55
2023/03/09 05:43:41;;;;;;;48.88;43.55;;;;;;;;;;5094976;28;20450;-56
2023/03/09 05:46:07;;;;;;;46.97;42.10;;;;;;;;;;5113949;28;20463;-61
2023/03/09 05:48:33;;;;;;;49.40;44.20;;;;;;;;;;5113562;28;20024;-58
2023/03/09 05:51:02;;;;;;;48.08;42.95;;;;;;;;;;5113461;28;20432;-56
2023/03/09 05:53:28;;;;;;;49.40;43.58;;;;;;;;;;5113421;28;20053;-58
2023/03/09 05:55:54;;;;;;;48.65;43.50;;;;;;;;;;5113526;28;20519;-59
2023/03/09 05:58:20;;;;;;;49.03;41.78;;;;;;;;;;5114708;28;20055;-59
2023/03/09 06:00:46;;;;;;;47.60;41.50;;;;;;;;;;5115700;27;20457;-56
2023/03/09 06:03:12;;;;;;;48.08;42.85;;;;;;;;;;5107438;28;20019;-55
2023/03/09 06:05:38;;;;;;;47.20;42.10;;;;;;;;;;5113289;28;20422;-58
2023/03/09 06:08:04;;;;;;;45.35;40.33;;;;;;;;;;5128908;22;20028;-59
2023/03/09 06:10:30;;;;;;;46.85;40.50;;;;;;;;;;5055334;28;20557;-63
2023/03/09 06:12:56;;;;;;;45.95;40.92;;;;;;;;;;5052776;28;20017;-60
2023/03/09 06:15:22;;;;;;;46.00;40.80;;;;;;;;;;5052696;28;20032;-64
2023/03/09 06:17:48;;;;;;;47.30;42.22;;;;;;;;;;5035001;28;20025;-65
2023/03/09 06:20:15;;;;;;;46.05;40.88;;;;;;;;;;5038126;28;20048;-64
2023/03/09 06:22:44;;;;;;;46.40;41.40;;;;;;;;;;5041833;28;20016;-62
2023/03/09 06:25:10;;;;;;;45.53;39.75;;;;;;;;;;5039196;28;20036;-63
2023/03/09 06:27:37;;;;;;;46.85;41.88;;;;;;;;;;5031070;28;20025;-62
2023/03/09 06:30:03;;;;;;;45.20;39.78;;;;;;;;;;5033209;28;20025;-63
2023/03/09 06:32:32;;;;;;;44.88;39.25;;;;;;;;;;5032474;28;20029;-63
2023/03/09 06:34:58;;;;;;;43.60;39.08;;;;;;;;;;5030686;28;20491;-64
2023/03/09 06:37:24;;;;;;;45.38;40.47;;;;;;;;;;5032590;28;20096;-63
2023/03/09 06:39:50;;;;;;;44.72;40.13;;;;;;;;;;5032336;28;20108;-63
2023/03/09 06:42:16;;;;;;;45.63;40.92;;;;;;;;;;5031955;28;20029;-59
2023/03/09 06:44:42;;;;;;;45.13;40.38;;;;;;;;;;5032057;28;20490;-61
2023/03/09 06:47:08;;;;;;;44.53;39.97;;;;;;;;;;5032307;28;20409;-63
2023/03/09 06:49:34;;;;;;;44.15;39.58;;;;;;;;;;5031903;28;20486;-57
2023/03/09 06:52:01;;;;;;;43.58;38.88;;;;;;;;;;5014025;28;20028;-64
2023/03/09 06:54:27;;;;;;;44.22;39.50;;;;;;;;;;5031204;28;20462;-62
2023/03/09 06:56:53;;;;;;;42.70;38.20;;;;;;;;;;5031567;28;20033;-61
2023/03/09 06:59:19;;;;;;;43.00;38.50;;;;;;;;;;5031666;28;20029;-65
2023/03/09 07:01:45;;;;;;;44.83;40.33;;;;;;;;;;5013754;28;20507;-62
2023/03/09 07:04:11;;;;;;;43.95;39.25;;;;;;;;;;5018790;28;20022;-59
2023/03/09 07:06:37;;;;;;;40.58;36.35;;;;;;;;;;4994184;28;20509;-61
2023/03/09 07:09:03;;;;;;;43.45;37.97;;;;;;;;;;5011709;28;20478;-62
2023/03/09 07:11:30;;;;;;;42.47;38.20;;;;;;;;;;5012150;28;20049;-63
2023/03/09 07:13:56;;;;;;;41.70;37.40;;;;;;;;;;5012236;28;20101;-62
2023/03/09 07:16:23;;;;;;;39.72;35.70;;;;;;;;;;4994458;28;20033;-65
2023/03/09 07:18:51;;;;;;;39.38;35.45;;;;;;;;;;5012010;28;20466;-62
2023/03/09 07:21:17;;;;;;;39.90;35.80;;;;;;;;;;4994102;28;20486;-67
2023/03/09 07:23:44;;;;;;;39.83;35.70;;;;;;;;;;4994070;28;20034;-66
2023/03/09 07:26:10;;;;;;;38.75;34.58;;;;;;;;;;5011724;28;20030;-64
2023/03/09 07:28:37;;;;;;;38.75;34.53;;;;;;;;;;5012143;28;20474;-59
2023/03/09 07:31:07;;;;;;;39.75;35.33;;;;;;;;;;4994750;28;20022;-64
2023/03/09 07:33:33;;;;;;;37.30;33.33;;;;;;;;;;5011755;28;20397;-63
2023/03/09 07:35:58;;;;;;;38.15;34.15;;;;;;;;;;4993721;28;20033;-63
2023/03/09 07:38:24;;;;;;;36.88;32.97;;;;;;;;;;5025018;28;20037;-61
2023/03/09 07:40:51;;;;;;;38.28;33.85;;;;;;;;;;5013942;28;20163;-61
2023/03/09 07:43:17;;;;;;;34.60;30.85;;;;;;;;;;5013541;28;20409;-63
2023/03/09 07:45:43;;;;;;;35.90;31.95;;;;;;;;;;5031382;28;20029;-60
2023/03/09 07:48:11;;;;;;;34.83;31.17;;;;;;;;;;5031883;28;20018;-64
2023/03/09 07:50:37;;;;;;;35.50;31.67;;;;;;;;;;5031542;28;20022;-64
2023/03/09 07:53:03;;;;;;;34.00;30.02;;;;;;;;;;5013848;28;20040;-64
2023/03/09 07:55:29;;;;;;;39.63;29.77;;;;;;;;;;5016847;28;20402;-64
2023/03/09 07:57:55;;;;;;;34.38;28.95;;;;;;;;;;5031416;28;20028;-62
2023/03/09 08:00:23;;;;;;;35.05;30.00;;;;;;;;;;5031099;28;20784;-61
2023/03/09 08:02:49;;;;;;;34.33;28.33;;;;;;;;;;5031179;28;20401;-62
2023/03/09 08:05:16;;;;;;;32.80;29.23;;;;;;;;;;5033600;28;20044;-63
2023/03/09 08:07:42;;;;;;;33.58;29.48;;;;;;;;;;5035064;28;20095;-64
2023/03/09 08:10:09;;;;;;;34.70;28.95;;;;;;;;;;5050412;28;20040;-62
2023/03/09 08:12:35;;;;;;;36.45;29.67;;;;;;;;;;5034751;28;20151;-63
2023/03/09 08:15:01;;;;;;;34.97;30.85;;;;;;;;;;5034581;28;20037;-64
2023/03/09 08:17:28;;;;;;;41.80;32.83;;;;;;;;;;5034660;28;20373;-63
2023/03/09 08:19:55;;;;;;;37.90;30.23;;;;;;;;;;5050046;28;20049;-63
2023/03/09 08:22:22;;;;;;;38.25;31.38;;;;;;;;;;5034477;28;20080;-63
2023/03/09 08:24:48;;;;;;;34.92;30.45;;;;;;;;;;5034640;28;21950;-67
2023/03/09 08:27:14;;;;;;;36.90;31.75;;;;;;;;;;5051417;28;20069;-65
2023/03/09 08:29:40;;;;;;;36.28;30.23;;;;;;;;;;5024040;28;20156;-66
2023/03/09 08:32:07;;;;;;;36.72;30.50;;;;;;;;;;5024147;28;20099;-66
2023/03/09 08:34:33;;;;;;;36.70;30.50;;;;;;;;;;5039081;28;20025;-67
2023/03/09 08:36:59;;;;;;;36.15;28.42;;;;;;;;;;5035566;28;20057;-67
2023/03/09 08:39:25;;;;;;;35.75;30.15;;;;;;;;;;5035291;28;20026;-66
2023/03/09 08:41:51;;;;;;;35.67;29.80;;;;;;;;;;5037320;28;20043;-65
2023/03/09 08:44:17;;;;;;;38.13;30.73;;;;;;;;;;5054996;28;20023;-65
2023/03/09 08:46:43;;;;;;;33.80;29.92;;;;;;;;;;5054790;28;20025;-66
2023/03/09 08:49:09;;;;;;;35.15;28.73;;;;;;;;;;5036710;28;20021;-57
2023/03/09 08:51:35;;;;;;;35.58;29.67;;;;;;;;;;5036425;28;20051;-61
2023/03/09 08:54:01;;;;;;;31.67;27.27;;;;;;;;;;5053666;28;20021;-56
2023/03/09 08:56:27;;;;;;;33.67;27.98;;;;;;;;;;5035626;28;20032;-62
2023/03/09 08:58:53;;;;;;;33.20;27.13;;;;;;;;;;5044441;28;20022;-61
2023/03/09 09:01:19;;;;;;;31.63;27.98;;;;;;;;;;5036293;28;20017;-57
2023/03/09 09:03:45;;;;;;;33.22;26.80;;;;;;;;;;5047260;28;20048;-62
2023/03/09 09:06:14;;;;;;;33.72;27.23;;;;;;;;;;5038416;28;20021;-66
2023/03/09 09:08:40;;;;;;;36.28;26.33;;;;;;;;;;5033597;28;20037;-63
2023/03/09 09:11:07;;;;;;;34.20;26.23;;;;;;;;;;5032566;28;20191;-63
2023/03/09 09:13:33;;;;;;;35.65;26.02;;;;;;;;;;5042202;28;20026;-63
2023/03/09 09:15:59;;;;;;;32.72;25.70;;;;;;;;;;5032909;28;20032;-63
2023/03/09 09:18:26;;;;;;;33.15;25.50;;;;;;;;;;5016041;28;20029;-62
2023/03/09 09:20:52;;;;;;;31.92;25.23;;;;;;;;;;5033908;28;20060;-65
2023/03/09 09:23:18;;;;;;;31.00;25.15;;;;;;;;;;5033407;28;20029;-63
2023/03/09 09:25:44;;;;;;;33.65;24.95;;;;;;;;;;5033303;28;20108;-64
2023/03/09 09:28:10;;;;;;;34.08;26.42;;;;;;;;;;5033379;28;20028;-61
2023/03/09 09:30:37;;;;;;;39.47;27.23;;;;;;;;;;5033162;28;20021;-66
2023/03/09 09:33:04;;;;;;;33.30;25.45;;;;;;;;;;5033614;28;20036;-64
2023/03/09 09:35:31;;;;;;;37.03;26.90;;;;;;;;;;5015521;28;20467;-66
2023/03/09 09:37:59;;;;;;;39.58;28.50;;;;;;;;;;5015398;28;20026;-62
2023/03/09 09:40:25;;;;;;;35.78;26.52;;;;;;;;;;5015598;28;20125;-64
2023/03/09 09:42:51;;;;;;;34.75;26.35;;;;;;;;;;5015493;28;20490;-65
2023/03/09 09:45:31;;;;;;;42.42;27.35;;;;;;;;;;5015119;28;20056;-64
2023/03/09 09:47:58;;;;;;;36.92;27.92;;;;;;;;;;5015382;28;20385;-62
2023/03/09 09:50:29;;;;;;;35.13;26.58;;;;;;;;;;5032955;28;20466;-63
2023/03/09 09:52:58;;;;;;;43.03;30.55;;;;;;;;;;5033152;28;20029;-62
2023/03/09 09:55:26;;;;;;;39.85;30.00;;;;;;;;;;5032734;28;20105;-64
2023/03/09 09:58:24;;;;;;;42.22;26.92;;;;;;;;;;5015760;28;20025;-63
2023/03/09 10:00:52;;;;;;;38.22;26.65;;;;;;;;;;5000599;28;20034;-62
2023/03/09 10:03:19;;;;;;;35.83;25.67;;;;;;;;;;5033895;28;20022;-64
2023/03/09 10:05:44;;;;;;;34.13;24.67;;;;;;;;;;5032634;28;20036;-63
2023/03/09 10:08:29;;;;;;;34.67;24.58;;;;;;;;;;5032556;28;20025;-62
2023/03/09 10:11:00;;;;;;;34.95;24.10;;;;;;;;;;5033047;28;20491;-63
2023/03/09 10:13:32;;;;;;;31.95;23.33;;;;;;;;;;5032303;28;20048;-64
2023/03/09 10:16:01;;;;;;;34.15;23.50;;;;;;;;;;5047816;28;20396;-64
2023/03/09 10:18:48;;;;;;;28.15;20.40;;;;;;;;;;5047515;28;20044;-62
2023/03/09 10:21:19;;;;;;;29.02;20.45;;;;;;;;;;5032321;28;20022;-64
2023/03/09 10:23:45;;;;;;;32.25;22.33;;;;;;;;;;5032227;28;20034;-62
2023/03/09 10:26:11;;;;;;;30.08;21.70;;;;;;;;;;5047563;28;20080;-63
2023/03/09 10:28:42;;;;;;;30.27;21.60;;;;;;;;;;5030866;28;20060;-61
2023/03/09 10:31:26;;;;;;;31.27;22.15;;;;;;;;;;5032236;28;20032;-62
2023/03/09 10:34:05;;;;;;;32.13;22.15;;;;;;;;;;5032031;28;20107;-60
2023/03/09 10:36:32;;;;;;;32.35;22.25;;;;;;;;;;5032257;28;20022;-63
2023/03/09 10:39:03;;;;;;;28.45;20.52;;;;;;;;;;5047564;28;20025;-61
2023/03/09 10:41:29;;;;;;;27.30;20.60;;;;;;;;;;5047379;28;20029;-63
2023/03/09 10:43:57;;;;;;;28.02;19.65;;;;;;;;;;5031601;28;20048;-63
2023/03/09 10:46:24;;;;;;;26.93;19.33;;;;;;;;;;5031836;28;20025;-62
2023/03/09 10:49:08;;;;;;;28.42;19.77;;;;;;;;;;5022178;28;20355;-66
2023/03/09 10:51:40;;;;;;;28.92;20.30;;;;;;;;;;5028793;28;20022;-66
2023/03/09 10:54:24;;;;;;;28.15;19.80;;;;;;;;;;5012083;28;20512;-66
2023/03/09 10:56:52;;;;;;;28.27;19.27;;;;;;;;;;5047750;28;20029;-65
2023/03/09 10:59:20;;;;;;;27.60;18.65;;;;;;;;;;5024360;28;20029;-67
2023/03/09 11:01:51;;;;;;;27.10;19.55;;;;;;;;;;5020327;28;20034;-66
2023/03/09 11:04:23;;;;;;;26.25;18.23;;;;;;;;;;5022712;28;20022;-65
2023/03/09 11:06:50;;;;;;;27.38;18.85;;;;;;;;;;5024196;28;20064;-66
2023/03/09 11:09:21;;;;;;;26.40;18.05;;;;;;;;;;5031244;28;20040;-68
2023/03/09 11:11:48;;;;;;;26.52;18.52;;;;;;;;;;5033282;28;20060;-66
2023/03/09 11:14:26;;;;;;;25.80;19.27;;;;;;;;;;5031512;28;20436;-66
2023/03/09 11:16:53;;;;;;;27.55;19.08;;;;;;;;;;5031734;28;20287;-65
2023/03/09 11:19:19;;;;;;;28.25;20.02;;;;;;;;;;5031775;28;20049;-67
2023/03/09 11:21:52;;;;;;;26.83;18.58;;;;;;;;;;5031305;28;20037;-66
2023/03/09 11:24:18;;;;;;;29.65;20.23;;;;;;;;;;5001898;28;20053;-67
2023/03/09 11:27:05;;;;;;;29.63;19.88;;;;;;;;;;5011565;28;20030;-67
2023/03/09 11:29:49;;;;;;;30.85;19.40;;;;;;;;;;5037150;28;20018;-65
2023/03/09 11:32:15;;;;;;;25.55;18.80;;;;;;;;;;5012069;28;20087;-66
2023/03/09 11:34:42;;;;;;;29.15;19.50;;;;;;;;;;5011928;28;20026;-65
2023/03/09 11:37:08;;;;;;;29.63;19.90;;;;;;;;;;5010714;28;20363;-65
2023/03/09 11:39:42;;;;;;;25.92;19.00;;;;;;;;;;5019980;28;20105;-65
2023/03/09 11:42:12;;;;;;;28.60;20.10;;;;;;;;;;5026429;28;20021;-66
2023/03/09 11:44:43;;;;;;;28.08;20.02;;;;;;;;;;5027135;28;20371;-66
2023/03/09 11:47:25;;;;;;;28.50;19.70;;;;;;;;;;5036188;28;20083;-66
2023/03/09 11:49:52;;;;;;;30.63;20.73;;;;;;;;;;5017581;28;20033;-65
2023/03/09 11:52:23;;;;;;;28.35;19.75;;;;;;;;;;5022046;28;20026;-66
2023/03/09 11:54:50;;;;;;;27.10;18.13;;;;;;;;;;5011572;28;20025;-66
2023/03/09 11:57:18;;;;;;;27.77;20.35;;;;;;;;;;5011811;28;20029;-65
2023/03/09 11:59:44;;;;;;;27.75;20.52;;;;;;;;;;5014320;28;20080;-65
2023/03/09 12:02:10;;;;;;;27.50;20.38;;;;;;;;;;5041464;28;20033;-66
2023/03/09 12:04:36;;;;;;;29.25;19.85;;;;;;;;;;5038629;28;20025;-66
2023/03/09 12:07:21;;;;;;;30.55;21.80;;;;;;;;;;5033012;28;20040;-67
2023/03/09 12:10:09;;;;;;;30.08;22.17;;;;;;;;;;5052355;28;20040;-67
2023/03/09 12:12:47;;;;;;;31.92;20.88;;;;;;;;;;5033150;28;20021;-69
2023/03/09 12:15:13;;;;;;;30.75;20.23;;;;;;;;;;5025403;28;20029;-66
2023/03/09 12:17:45;;;;;;;30.55;20.58;;;;;;;;;;5024827;28;20027;-67
2023/03/09 12:20:30;;;;;;;29.27;19.42;;;;;;;;;;5042092;28;20478;-64
2023/03/09 12:22:56;;;;;;;27.08;19.73;;;;;;;;;;5031357;28;20035;-67
2023/03/09 12:25:23;;;;;;;27.98;20.63;;;;;;;;;;5051391;28;20054;-67
2023/03/09 12:27:50;;;;;;;27.88;20.85;;;;;;;;;;5051529;28;20021;-67
2023/03/09 12:30:19;;;;;;;26.63;19.48;;;;;;;;;;5044335;28;20508;-67
2023/03/09 12:32:45;;;;;;;28.10;19.73;;;;;;;;;;5033050;28;20029;-66
2023/03/09 12:35:20;;;;;;;29.25;21.40;;;;;;;;;;5050903;28;20029;-67
2023/03/09 12:37:46;;;;;;;30.13;20.90;;;;;;;;;;5051199;28;20029;-67
2023/03/09 12:40:15;;;;;;;28.67;20.45;;;;;;;;;;5050724;28;20167;-67
2023/03/09 12:42:42;;;;;;;29.58;20.25;;;;;;;;;;5051296;28;20390;-66
2023/03/09 12:45:14;;;;;;;28.20;19.73;;;;;;;;;;5050299;28;20025;-67
2023/03/09 12:47:55;;;;;;;31.27;21.30;;;;;;;;;;5046504;28;20017;-68
2023/03/09 12:50:40;;;;;;;30.98;21.45;;;;;;;;;;5045641;28;20061;-66
2023/03/09 12:53:19;;;;;;;29.08;19.65;;;;;;;;;;5054261;28;20032;-67
2023/03/09 12:55:45;;;;;;;;;;;;;;;;;;5034563;28;20029;-68
2023/03/09 12:58:26;;;;;;;28.70;20.63;;;;;;;;;;5031574;28;20383;-68
2023/03/09 13:01:00;;;;;;;27.63;19.45;;;;;;;;;;5036288;28;20047;-68
2023/03/09 13:03:26;;;;;;;28.98;20.98;;;;;;;;;;5029560;28;20026;-66
2023/03/09 13:05:53;;;;;;;29.50;21.33;;;;;;;;;;5037995;28;20058;-67
2023/03/09 13:08:25;;;;;;;28.50;20.45;;;;;;;;;;5042377;28;20012;-67
2023/03/09 13:10:51;;;;;;;30.85;22.05;;;;;;;;;;5043499;28;20052;-66
2023/03/09 13:13:37;;;;;;;28.92;20.15;;;;;;;;;;5054074;28;20040;-68
2023/03/09 13:16:22;;;;;;;28.55;20.30;;;;;;;;;;5041809;28;20047;-67
2023/03/09 13:18:48;;;;;;;27.05;19.95;;;;;;;;;;5043463;28;20029;-67
2023/03/09 13:21:49;;;;;;;31.25;21.50;;;;;;;;;;5024658;28;20029;-67
2023/03/09 13:24:42;;;;;;;29.67;21.48;;;;;;;;;;4971815;28;20095;-67
2023/03/09 13:27:11;;;;;;;31.02;21.75;;;;;;;;;;5002192;28;20042;-66
2023/03/09 13:29:51;;;;;;;31.42;22.73;;;;;;;;;;5013990;28;20041;-65
2023/03/09 13:32:27;;;;;;;32.00;22.88;;;;;;;;;;5023398;28;20026;-67
2023/03/09 13:34:54;;;;;;;30.63;25.52;;;;;;;;;;5025696;28;20033;-67
2023/03/09 13:37:25;;;;;;;35.03;25.75;;;;;;;;;;5012365;28;20076;-69
2023/03/09 13:40:02;;;;;;;35.22;27.35;;;;;;;;;;5014145;28;20124;-66
2023/03/09 13:42:30;;;;;;;34.92;26.40;;;;;;;;;;5013940;28;20072;-68
2023/03/09 13:44:56;;;;;;;33.35;28.50;;;;;;;;;;5013722;28;20101;-68
2023/03/09 13:47:26;;;;;;;31.23;26.92;;;;;;;;;;5013843;28;20033;-66
2023/03/09 13:49:53;;;;;;;31.88;28.27;;;;;;;;;;5024586;28;20133;-67
2023/03/09 13:52:19;;;;;;;34.67;28.10;;;;;;;;;;5045571;28;20021;-65
2023/03/09 13:54:53;;;;;;;33.58;28.80;;;;;;;;;;5052240;28;20025;-68
2023/03/09 13:57:25;;;;;;;33.95;28.83;;;;;;;;;;4996757;28;20053;-67
2023/03/09 13:59:54;;;;;;;31.65;27.77;;;;;;;;;;5014076;28;20028;-67
2023/03/09 14:02:20;;;;;;;35.42;29.08;;;;;;;;;;5014080;28;20018;-66
2023/03/09 14:04:56;;;;;;;33.38;28.48;;;;;;;;;;5028134;28;20025;-67
2023/03/09 14:07:23;;;;;;;36.88;29.45;;;;;;;;;;5044033;28;20021;-67
2023/03/09 14:09:51;;;;;;;37.80;30.23;;;;;;;;;;5045008;28;20049;-67
2023/03/09 14:12:28;;;;;;;37.90;30.33;;;;;;;;;;5053370;28;20071;-67
2023/03/09 14:14:54;;;;;;;35.60;30.92;;;;;;;;;;5052733;28;20021;-66
2023/03/09 14:17:20;;;;;;;36.20;31.27;;;;;;;;;;5035302;28;20082;-66
2023/03/09 14:19:50;;;;;;;37.58;31.92;;;;;;;;;;5044521;28;20100;-64
2023/03/09 14:22:27;;;;;;;39.45;32.90;;;;;;;;;;5040278;28;20399;-64
2023/03/09 14:24:53;;;;;;;36.45;32.42;;;;;;;;;;5032115;28;20628;-67